Terminal Aerodrome Forecast
Issued by NWS

Home | Current Version | Previous Version | Text Only | Print | Product List | Glossary Off
Versions: 1 2 3 4 5 6 7 8 9 10 11 12 13 14 15 16 17 18 19 20 21 22 23 24 25 26 27 28 29

000
FTUS42 KMHX 150600 AAA
TAFOAJ
TAF AMD
KOAJ 150605Z 1506/1606 00000KT P6SM OVC025
     FM151600 04005KT P6SM BKN050
     FM152000 09005KT P6SM BKN050
     FM152300 15005KT P6SM BKN100
      AMD LTD TO CLD VIS AND WIND=

USA.gov is the U.S. government's official web portal to all federal, state and local government web resources and services.